Time;durP1;ratioP1;P1;durP2;ratioP2;P2;SDS_P1;SDS_P2;PMS_P1;PMS_P2;Temp;Humidity;BMP_temperature;BMP_pressure;BME280_temperature;BME280_humidity;BME280_pressure;Samples;Min_cycle;Max_cycle;Signal;HPM_P1;HPM_P2
2021/10/02 00:31:29;;;;;;;3.60;3.30;;;12.80;99.90;;;;;;5110462;22;20492;-42
2021/10/02 00:34:25;;;;;;;10.00;3.23;;;12.70;99.90;;;;;;5113371;22;20493;-40
2021/10/02 00:37:24;;;;;;;2.97;2.23;;;12.70;99.90;;;;;;5081630;28;20491;-39
2021/10/02 00:45:29;;;;;;;7.00;2.83;;;12.70;99.90;;;;;;5109957;22;20427;-39
2021/10/02 00:47:56;;;;;;;3.60;2.93;;;12.80;99.90;;;;;;5102462;28;20818;-41
2021/10/02 00:50:24;;;;;;;9.03;3.03;;;12.80;99.90;;;;;;5103742;28;20430;-45
2021/10/02 00:52:52;;;;;;;8.03;3.27;;;12.80;99.90;;;;;;5128729;22;20550;-40
2021/10/02 00:55:18;;;;;;;8.70;3.43;;;12.80;99.90;;;;;;5104981;28;20509;-49
2021/10/02 00:57:45;;;;;;;4.60;3.20;;;12.80;99.90;;;;;;5111463;22;20567;-41
2021/10/02 01:00:14;;;;;;;5.20;3.43;;;12.90;99.90;;;;;;5082915;28;20490;-40
2021/10/02 01:02:54;;;;;;;7.43;2.70;;;12.90;99.90;;;;;;5105070;22;20957;-42
2021/10/02 01:05:48;;;;;;;4.47;3.23;;;12.80;99.90;;;;;;5102570;28;20478;-42
2021/10/02 01:08:26;;;;;;;5.17;3.20;;;12.90;99.90;;;;;;5110525;22;20481;-41
2021/10/02 01:11:01;;;;;;;3.40;2.23;;;12.90;99.90;;;;;;5102996;28;20469;-43
2021/10/02 01:13:34;;;;;;;7.13;3.73;;;12.90;99.90;;;;;;5111046;22;21110;-40
2021/10/02 01:16:08;;;;;;;6.70;3.70;;;12.90;99.90;;;;;;5102635;28;20534;-41
2021/10/02 01:18:42;;;;;;;7.83;3.80;;;12.90;99.90;;;;;;5109990;22;20512;-41
2021/10/02 01:21:26;;;;;;;5.20;3.63;;;12.90;99.90;;;;;;5103336;28;20429;-42
2021/10/02 01:24:00;;;;;;;4.30;2.73;;;12.90;99.90;;;;;;5113772;22;20984;-42
2021/10/02 01:29:28;;;;;;;4.30;2.93;;;12.90;99.90;;;;;;5110134;22;20579;-41
2021/10/02 01:32:03;;;;;;;5.77;3.27;;;12.90;99.90;;;;;;5102059;28;20502;-41
2021/10/02 01:34:47;;;;;;;7.27;3.80;;;12.90;99.90;;;;;;5113573;22;20492;-43
2021/10/02 01:48:45;;;;;;;10.20;3.13;;;12.80;99.90;;;;;;5110951;22;20819;-42
2021/10/02 01:51:14;;;;;;;5.57;3.10;;;12.80;99.90;;;;;;5101508;28;20422;-40
2021/10/02 01:53:47;;;;;;;7.03;3.47;;;12.80;99.90;;;;;;5109380;22;20510;-42
2021/10/02 01:56:18;;;;;;;6.03;2.83;;;12.80;99.90;;;;;;5101924;28;20783;-40
2021/10/02 01:58:46;;;;;;;6.10;2.93;;;12.80;99.90;;;;;;5109768;22;20481;-43
2021/10/02 02:01:15;;;;;;;7.80;3.37;;;12.80;99.90;;;;;;5101213;28;20469;-42
2021/10/02 02:03:55;;;;;;;3.30;2.63;;;12.70;99.90;;;;;;5109160;22;21151;-40
2021/10/02 02:06:24;;;;;;;3.27;2.50;;;12.70;99.90;;;;;;5101458;28;20465;-42
2021/10/02 02:08:53;;;;;;;3.43;2.63;;;12.80;99.90;;;;;;5106356;22;20556;-40
2021/10/02 02:11:20;;;;;;;3.93;2.57;;;12.70;99.90;;;;;;5080696;28;20435;-40
2021/10/02 02:13:51;;;;;;;5.00;2.87;;;12.70;99.90;;;;;;5084586;28;20426;-39
2021/10/02 02:16:19;;;;;;;3.30;2.43;;;12.70;99.90;;;;;;5080870;28;20443;-43
2021/10/02 02:18:48;;;;;;;2.33;2.10;;;12.70;99.90;;;;;;5079832;28;20474;-42
2021/10/02 02:21:16;;;;;;;3.13;2.50;;;12.70;99.90;;;;;;5122826;22;21063;-41
2021/10/02 02:23:42;;;;;;;3.27;2.70;;;12.60;99.90;;;;;;5099359;28;20457;-40
2021/10/02 02:26:10;;;;;;;2.87;2.27;;;12.60;99.90;;;;;;5107138;22;20799;-39
2021/10/02 02:28:38;;;;;;;12.13;5.20;;;12.60;99.90;;;;;;5099390;28;20489;-41
2021/10/02 02:31:06;;;;;;;7.57;3.70;;;12.60;99.90;;;;;;5123228;22;20562;-43
2021/10/02 02:33:35;;;;;;;5.00;2.60;;;12.60;99.90;;;;;;5099650;28;20465;-39
2021/10/02 02:36:02;;;;;;;4.60;2.97;;;12.60;99.90;;;;;;5109800;22;20913;-40
2021/10/02 02:38:30;;;;;;;4.50;3.27;;;12.60;99.90;;;;;;5099856;28;20461;-41
2021/10/02 02:40:57;;;;;;;4.43;2.83;;;12.60;99.90;;;;;;5106944;22;20484;-41
2021/10/02 02:43:27;;;;;;;2.63;2.43;;;12.60;99.90;;;;;;5099739;28;20490;-42
2021/10/02 02:45:58;;;;;;;3.50;2.77;;;12.50;99.90;;;;;;5107225;22;20499;-41
2021/10/02 02:48:31;;;;;;;2.83;2.20;;;12.50;99.90;;;;;;5097132;28;20491;-43
2021/10/02 02:51:03;;;;;;;8.00;3.57;;;12.50;99.90;;;;;;5105370;22;20501;-42
2021/10/02 02:53:43;;;;;;;5.00;2.60;;;12.50;99.90;;;;;;5096149;28;20485;-41
2021/10/02 02:56:21;;;;;;;6.37;3.73;;;12.60;99.90;;;;;;5104431;22;20485;-45
2021/10/02 02:58:51;;;;;;;5.27;2.87;;;12.60;99.90;;;;;;5096434;28;20946;-40
2021/10/02 03:01:20;;;;;;;3.20;2.73;;;12.60;99.90;;;;;;5105013;22;20489;-44
2021/10/02 03:03:50;;;;;;;5.50;2.63;;;12.60;99.90;;;;;;5096938;28;20770;-42
2021/10/02 03:06:20;;;;;;;4.77;3.20;;;12.60;99.90;;;;;;5104735;22;20504;-42
2021/10/02 03:08:51;;;;;;;5.37;3.57;;;12.60;99.90;;;;;;5096668;28;20493;-44
2021/10/02 03:11:20;;;;;;;3.57;2.77;;;12.60;99.90;;;;;;5105043;22;20456;-40
2021/10/02 03:13:50;;;;;;;3.30;3.00;;;12.50;99.90;;;;;;5078827;28;20489;-43
2021/10/02 03:19:01;;;;;;;5.13;2.63;;;12.50;99.90;;;;;;5106648;22;20864;-40
2021/10/02 03:24:11;;;;;;;3.53;2.47;;;12.60;99.90;;;;;;5104359;22;20573;-42
2021/10/02 03:26:39;;;;;;;3.30;2.70;;;12.70;99.90;;;;;;5096796;28;20967;-41
2021/10/02 03:29:08;;;;;;;4.03;3.30;;;12.80;99.90;;;;;;5104657;22;21054;-40
2021/10/02 03:31:35;;;;;;;2.93;2.67;;;12.70;99.90;;;;;;5096369;28;20906;-39
2021/10/02 03:34:03;;;;;;;3.03;2.73;;;12.70;99.90;;;;;;5103921;22;20493;-41
2021/10/02 03:36:31;;;;;;;4.30;3.53;;;12.70;99.90;;;;;;5096471;28;20446;-41
2021/10/02 03:38:58;;;;;;;5.30;2.50;;;12.70;99.90;;;;;;5103901;22;20501;-40
2021/10/02 03:41:25;;;;;;;7.40;2.80;;;12.90;99.90;;;;;;5095869;28;20434;-41
2021/10/02 03:43:52;;;;;;;6.23;3.33;;;13.00;99.90;;;;;;5103441;22;20561;-43
2021/10/02 03:46:18;;;;;;;5.20;3.00;;;13.10;99.90;;;;;;5096217;28;20437;-41
2021/10/02 03:48:45;;;;;;;8.23;3.03;;;13.20;99.90;;;;;;5095703;22;20478;-39
2021/10/02 03:51:12;;;;;;;6.57;3.20;;;13.20;99.90;;;;;;5083347;22;20490;-40
2021/10/02 03:53:41;;;;;;;5.13;2.90;;;13.30;99.90;;;;;;5090367;22;20489;-44
2021/10/02 03:56:09;;;;;;;4.57;3.80;;;13.30;99.90;;;;;;5096166;28;20476;-42
2021/10/02 03:58:35;;;;;;;5.70;3.40;;;13.30;99.90;;;;;;5119856;22;20507;-40
2021/10/02 04:01:03;;;;;;;5.07;3.37;;;13.20;99.90;;;;;;5096151;28;20469;-39
2021/10/02 04:03:30;;;;;;;3.67;3.33;;;13.20;99.90;;;;;;5103732;22;20453;-40
2021/10/02 04:06:00;;;;;;;3.00;2.47;;;13.10;99.90;;;;;;5095900;28;20465;-41
2021/10/02 04:08:27;;;;;;;5.43;3.53;;;13.00;99.90;;;;;;5095824;28;20810;-39
2021/10/02 04:10:55;;;;;;;5.87;4.23;;;13.10;99.90;;;;;;5103293;22;20989;-41
2021/10/02 04:13:22;;;;;;;3.27;2.97;;;12.90;99.90;;;;;;5095659;28;20743;-41
2021/10/02 04:15:49;;;;;;;4.50;3.20;;;13.00;99.90;;;;;;5103586;22;20556;-40
2021/10/02 04:18:15;;;;;;;3.20;2.80;;;13.00;99.90;;;;;;5095589;28;20820;-41
2021/10/02 04:20:42;;;;;;;3.23;2.93;;;13.00;99.90;;;;;;5103440;22;20845;-40
2021/10/02 04:23:09;;;;;;;4.80;3.27;;;13.00;99.90;;;;;;5095876;28;20515;-42
2021/10/02 04:25:35;;;;;;;5.70;3.27;;;12.90;99.90;;;;;;5104377;22;20515;-39
2021/10/02 04:28:04;;;;;;;3.63;2.80;;;12.90;99.90;;;;;;5096847;28;20441;-41
2021/10/02 04:30:30;;;;;;;5.70;3.10;;;13.00;99.90;;;;;;5104311;22;20485;-40
2021/10/02 04:32:57;;;;;;;3.90;2.90;;;13.00;99.90;;;;;;5096307;28;20461;-42
2021/10/02 04:35:24;;;;;;;6.17;3.60;;;13.00;99.90;;;;;;5104155;22;20489;-42
2021/10/02 04:37:51;;;;;;;7.47;3.70;;;13.10;99.90;;;;;;5095956;28;20449;-40
2021/10/02 04:40:18;;;;;;;4.40;3.40;;;13.10;99.90;;;;;;5103962;22;20768;-41
2021/10/02 04:42:45;;;;;;;3.80;3.10;;;13.20;99.90;;;;;;5095970;28;20438;-45
2021/10/02 04:47:40;;;;;;;5.00;3.33;;;13.10;99.90;;;;;;5101343;22;20537;-42
2021/10/02 04:50:08;;;;;;;4.37;2.80;;;13.10;99.90;;;;;;5095462;28;20477;-43
2021/10/02 04:52:34;;;;;;;5.73;3.50;;;13.10;99.90;;;;;;5119636;22;20497;-41
2021/10/02 04:55:01;;;;;;;8.40;3.37;;;13.00;99.90;;;;;;5095624;28;20438;-44
2021/10/02 04:57:28;;;;;;;3.97;3.50;;;13.00;99.90;;;;;;5102860;22;20481;-41
2021/10/02 04:59:54;;;;;;;3.50;2.53;;;12.90;99.90;;;;;;5095274;28;20906;-41
2021/10/02 05:02:21;;;;;;;3.77;3.37;;;12.90;99.90;;;;;;5103241;22;20553;-41
2021/10/02 05:04:49;;;;;;;3.97;3.57;;;12.80;99.90;;;;;;5095275;28;20495;-41
2021/10/02 05:07:15;;;;;;;5.57;3.60;;;12.80;99.90;;;;;;5113243;22;20556;-42
2021/10/02 05:09:42;;;;;;;6.30;3.57;;;12.80;99.90;;;;;;5115401;28;20480;-41
2021/10/02 05:12:10;;;;;;;4.33;3.50;;;12.80;99.90;;;;;;5115515;22;20511;-41
2021/10/02 05:14:37;;;;;;;5.80;3.73;;;12.90;99.90;;;;;;5095537;28;20507;-42
2021/10/02 05:17:04;;;;;;;4.17;3.27;;;13.00;99.90;;;;;;5104242;22;20493;-41
2021/10/02 05:19:31;;;;;;;4.20;3.73;;;13.00;99.90;;;;;;5099040;28;20499;-38
2021/10/02 05:21:59;;;;;;;4.50;3.00;;;13.10;99.90;;;;;;5106833;22;20530;-41
2021/10/02 05:24:26;;;;;;;4.20;3.60;;;13.20;99.90;;;;;;5099112;28;20433;-43
2021/10/02 05:26:52;;;;;;;3.20;2.70;;;13.20;99.90;;;;;;5107192;22;20530;-41
2021/10/02 05:29:22;;;;;;;6.40;3.50;;;13.30;99.90;;;;;;5098236;28;20477;-40
2021/10/02 05:31:49;;;;;;;5.60;4.70;;;13.30;99.90;;;;;;5098777;28;20547;-40
2021/10/02 05:34:15;;;;;;;9.07;3.50;;;13.40;99.90;;;;;;5106542;22;20477;-40
2021/10/02 05:36:42;;;;;;;3.70;2.83;;;13.30;99.90;;;;;;5098467;28;20480;-40
2021/10/02 05:39:10;;;;;;;5.00;3.33;;;13.40;99.90;;;;;;5105840;22;20496;-42
2021/10/02 05:41:39;;;;;;;5.83;3.03;;;13.40;99.90;;;;;;5098946;28;20470;-40
2021/10/02 05:44:06;;;;;;;4.47;3.23;;;13.40;99.90;;;;;;5106165;22;20489;-40
2021/10/02 05:46:32;;;;;;;4.97;3.67;;;13.40;99.90;;;;;;5098066;28;20473;-40
2021/10/02 05:48:59;;;;;;;3.83;3.10;;;13.40;99.90;;;;;;5105547;22;20973;-41
2021/10/02 05:51:26;;;;;;;3.97;2.60;;;13.40;99.90;;;;;;5098075;28;20445;-39
2021/10/02 05:53:52;;;;;;;4.23;3.47;;;13.50;99.90;;;;;;5123911;22;20508;-41
2021/10/02 05:56:20;;;;;;;3.93;3.30;;;13.50;99.90;;;;;;5100817;28;20494;-41
2021/10/02 05:58:47;;;;;;;4.53;2.97;;;13.50;99.90;;;;;;5107395;22;20481;-41
2021/10/02 06:01:14;;;;;;;3.23;2.60;;;13.50;99.90;;;;;;5099560;28;20499;-39
2021/10/02 06:03:41;;;;;;;4.00;3.20;;;13.50;99.90;;;;;;5107733;22;20507;-42
2021/10/02 06:06:07;;;;;;;4.00;3.57;;;13.40;99.90;;;;;;5100424;28;20428;-41
2021/10/02 06:08:40;;;;;;;3.90;3.07;;;13.50;99.90;;;;;;5108792;22;20514;-40
2021/10/02 06:11:07;;;;;;;3.67;3.33;;;13.50;99.90;;;;;;5080215;28;20466;-44
2021/10/02 06:16:19;;;;;;;3.47;2.73;;;13.70;99.90;;;;;;5105446;22;20489;-41
2021/10/02 06:21:14;;;;;;;4.83;4.07;;;13.70;99.90;;;;;;5105338;22;20496;-41
2021/10/02 06:23:41;;;;;;;5.50;3.70;;;13.60;99.90;;;;;;5102599;28;20437;-41
2021/10/02 06:26:08;;;;;;;4.23;3.77;;;13.60;99.90;;;;;;5108918;22;20965;-41
2021/10/02 06:28:35;;;;;;;5.77;3.90;;;13.60;99.90;;;;;;5097091;28;20461;-44
2021/10/02 06:31:02;;;;;;;3.73;2.90;;;13.70;99.90;;;;;;5105203;22;20500;-41
2021/10/02 06:33:30;;;;;;;3.43;3.13;;;13.70;99.90;;;;;;5097349;28;20465;-43
2021/10/02 06:35:57;;;;;;;4.90;3.67;;;13.70;99.90;;;;;;5104921;22;20489;-40
2021/10/02 06:38:24;;;;;;;3.70;2.73;;;13.70;99.90;;;;;;5097044;28;20831;-39
2021/10/02 06:40:51;;;;;;;6.70;4.07;;;13.70;99.90;;;;;;5104754;22;20501;-42
2021/10/02 06:43:18;;;;;;;5.03;3.53;;;13.60;99.90;;;;;;5096986;28;20870;-42
2021/10/02 06:45:44;;;;;;;4.90;3.63;;;13.70;99.90;;;;;;5105461;22;20937;-42
2021/10/02 06:48:11;;;;;;;3.90;3.20;;;13.60;99.90;;;;;;5076811;28;20485;-40
2021/10/02 06:53:22;;;;;;;5.20;3.37;;;13.70;99.90;;;;;;5103007;22;20954;-40
2021/10/02 06:55:48;;;;;;;4.03;3.27;;;13.90;99.90;;;;;;5097530;28;20445;-49
2021/10/02 06:58:15;;;;;;;3.43;3.13;;;13.90;99.90;;;;;;5104749;22;20554;-42
2021/10/02 07:00:42;;;;;;;4.00;3.03;;;13.90;99.90;;;;;;5096529;28;20442;-41
2021/10/02 07:03:08;;;;;;;5.63;3.50;;;14.00;99.90;;;;;;5104290;22;20489;-41
2021/10/02 07:05:35;;;;;;;4.60;3.17;;;14.00;99.90;;;;;;5096736;28;20928;-42
2021/10/02 07:08:04;;;;;;;5.23;3.80;;;14.10;99.90;;;;;;5104028;22;20554;-41
2021/10/02 07:10:31;;;;;;;4.37;3.90;;;14.20;99.90;;;;;;5096285;28;20481;-41
2021/10/02 07:12:57;;;;;;;5.53;3.33;;;14.20;99.90;;;;;;5103432;22;20491;-40
2021/10/02 07:15:24;;;;;;;4.40;3.40;;;14.20;99.90;;;;;;5096429;28;20491;-41
2021/10/02 07:17:51;;;;;;;6.40;3.10;;;14.30;99.90;;;;;;5104301;22;20493;-44
2021/10/02 07:20:17;;;;;;;2.97;2.57;;;14.40;99.90;;;;;;5096067;28;20438;-41
2021/10/02 07:22:45;;;;;;;4.53;3.40;;;14.50;99.90;;;;;;5103821;22;20493;-41
2021/10/02 07:25:15;;;;;;;7.50;3.30;;;14.50;99.90;;;;;;5096162;28;20828;-41
2021/10/02 07:27:43;;;;;;;8.17;3.50;;;14.50;99.90;;;;;;5095750;28;20449;-41
2021/10/02 07:30:11;;;;;;;6.90;3.40;;;14.60;99.90;;;;;;5103564;22;21026;-40
2021/10/02 07:32:38;;;;;;;6.40;3.57;;;14.70;99.90;;;;;;5095628;28;20441;-43
2021/10/02 07:35:06;;;;;;;3.83;3.13;;;14.90;99.90;;;;;;5103726;22;20501;-42
2021/10/02 07:37:33;;;;;;;4.10;3.37;;;14.90;99.90;;;;;;5095370;28;20763;-40
2021/10/02 07:40:00;;;;;;;8.20;3.50;;;15.00;99.90;;;;;;5102810;22;20485;-51
2021/10/02 07:42:31;;;;;;;3.93;3.00;;;15.10;99.90;;;;;;5095577;28;20758;-41
2021/10/02 07:45:03;;;;;;;5.30;3.90;;;14.90;99.90;;;;;;5103598;22;20489;-42
2021/10/02 07:47:32;;;;;;;8.80;3.70;;;15.00;99.90;;;;;;5095739;28;20494;-41
2021/10/02 07:50:00;;;;;;;3.37;3.03;;;15.10;99.90;;;;;;5103482;22;20895;-41
2021/10/02 07:52:28;;;;;;;5.10;3.40;;;15.10;99.90;;;;;;5095550;28;20518;-41
2021/10/02 07:54:55;;;;;;;5.37;3.10;;;15.20;99.90;;;;;;5103058;22;20489;-42
2021/10/02 07:57:22;;;;;;;4.47;3.70;;;15.30;99.90;;;;;;5095371;28;20429;-41
2021/10/02 07:59:50;;;;;;;5.60;5.10;;;15.40;99.90;;;;;;5109965;22;20488;-48
2021/10/02 08:02:19;;;;;;;4.43;4.00;;;15.50;99.90;;;;;;5115988;28;20445;-41
2021/10/02 08:04:47;;;;;;;4.83;3.67;;;15.60;99.90;;;;;;5118874;22;20493;-42
2021/10/02 08:07:14;;;;;;;3.80;3.43;;;15.60;99.90;;;;;;5095205;28;20433;-42
2021/10/02 08:09:44;;;;;;;4.27;3.80;;;15.70;99.90;;;;;;5095352;28;20486;-42
2021/10/02 08:12:12;;;;;;;4.63;3.17;;;15.70;99.90;;;;;;5094963;28;20433;-41
2021/10/02 08:17:12;;;;;;;3.67;2.97;;;15.90;99.90;;;;;;5100462;22;20477;-46
2021/10/02 08:19:41;;;;;;;4.40;3.30;;;16.10;99.90;;;;;;5094983;28;20469;-41
2021/10/02 08:22:10;;;;;;;3.27;2.50;;;16.30;99.90;;;;;;5103134;22;20901;-41
2021/10/02 08:24:40;;;;;;;3.53;2.37;;;16.50;99.90;;;;;;5095060;28;20515;-42
2021/10/02 08:27:29;;;;;;;3.30;2.73;;;16.60;99.90;;;;;;5102967;22;20831;-43
2021/10/02 08:29:57;;;;;;;4.30;2.87;;;16.70;99.90;;;;;;5094977;28;20803;-42
2021/10/02 08:32:25;;;;;;;7.87;3.60;;;16.80;99.90;;;;;;5101988;22;20501;-44
2021/10/02 08:34:52;;;;;;;5.23;2.87;;;16.90;99.90;;;;;;5094332;28;20469;-39
2021/10/02 08:37:19;;;;;;;3.97;2.90;;;17.20;99.90;;;;;;5086729;22;20498;-42
2021/10/02 08:39:45;;;;;;;3.50;2.43;;;17.70;99.90;;;;;;5073988;28;20954;-43
2021/10/02 08:42:12;;;;;;;3.33;2.70;;;18.30;99.90;;;;;;5095480;22;20485;-44
2021/10/02 08:44:39;;;;;;;3.13;2.40;;;19.20;99.90;;;;;;5094392;28;20437;-41
2021/10/02 08:47:08;;;;;;;9.70;3.40;;;20.70;99.90;;;;;;5096323;22;21895;-43
2021/10/02 08:49:44;;;;;;;3.73;2.70;;;22.20;99.90;;;;;;5085116;28;20827;-40
2021/10/02 08:52:13;;;;;;;5.10;3.23;;;23.90;99.90;;;;;;5104799;22;20481;-42
2021/10/02 08:54:43;;;;;;;2.67;2.43;;;25.00;94.20;;;;;;5079405;28;20439;-43
2021/10/02 08:57:11;;;;;;;5.40;2.73;;;25.90;89.50;;;;;;5084043;22;20486;-40
2021/10/02 08:59:39;;;;;;;4.70;2.30;;;26.80;83.00;;;;;;5078668;28;20450;-41
2021/10/02 09:02:07;;;;;;;2.60;2.40;;;27.40;76.00;;;;;;5086106;22;20482;-40
2021/10/02 09:04:34;;;;;;;3.70;2.87;;;27.80;71.30;;;;;;5078927;28;20496;-39
2021/10/02 09:07:03;;;;;;;4.10;3.07;;;27.80;68.60;;;;;;5088857;22;20457;-42
2021/10/02 09:09:30;;;;;;;4.50;2.47;;;28.00;66.60;;;;;;5121663;28;20474;-39
2021/10/02 09:14:22;;;;;;;2.90;2.23;;;26.60;66.60;;;;;;5142380;22;20467;-43
2021/10/02 09:16:49;;;;;;;2.93;2.37;;;25.40;70.30;;;;;;5141131;27;20198;-42
2021/10/02 09:19:16;;;;;;;2.93;2.10;;;24.30;74.20;;;;;;5125296;22;20489;-42
2021/10/02 09:21:44;;;;;;;3.10;2.43;;;23.30;77.80;;;;;;5098035;28;20453;-43
2021/10/02 09:24:22;;;;;;;5.10;2.67;;;22.50;80.30;;;;;;5105297;22;20504;-42
2021/10/02 09:26:50;;;;;;;3.23;2.20;;;21.80;84.20;;;;;;5097646;28;20537;-40
2021/10/02 09:29:18;;;;;;;3.60;2.30;;;21.80;86.10;;;;;;5105341;22;20839;-42
2021/10/02 09:31:45;;;;;;;3.60;2.00;;;22.50;85.20;;;;;;5091962;28;20481;-42
2021/10/02 09:34:23;;;;;;;2.73;2.30;;;23.60;82.20;;;;;;5101548;22;20879;-45
2021/10/02 09:36:50;;;;;;;4.90;2.40;;;24.80;78.50;;;;;;5089234;28;20546;-46
2021/10/02 09:39:17;;;;;;;2.23;2.03;;;25.80;75.70;;;;;;5094797;22;20493;-44
2021/10/02 09:41:50;;;;;;;3.30;2.60;;;26.60;72.90;;;;;;5090107;28;20453;-44
2021/10/02 09:44:22;;;;;;;4.50;2.10;;;27.60;69.10;;;;;;5099298;22;20477;-43
2021/10/02 09:46:49;;;;;;;2.33;2.13;;;28.20;64.40;;;;;;5091772;28;20458;-40
2021/10/02 09:49:15;;;;;;;4.47;2.40;;;28.60;63.30;;;;;;5093960;28;20933;-40
2021/10/02 09:51:45;;;;;;;2.90;2.20;;;28.90;62.10;;;;;;5092310;28;20474;-48
2021/10/02 09:57:10;;;;;;;2.60;2.40;;;28.40;60.10;;;;;;5074970;22;20493;-45
2021/10/02 09:59:42;;;;;;;1.90;1.70;;;28.00;60.80;;;;;;5077053;22;20446;31
2021/10/02 10:02:13;;;;;;;2.10;1.90;;;27.50;62.90;;;;;;5007440;28;20531;-41
2021/10/02 10:07:12;;;;;;;3.07;1.90;;;27.30;62.40;;;;;;5097447;22;20474;-41
2021/10/02 10:09:40;;;;;;;2.53;2.00;;;27.50;62.20;;;;;;5093637;28;20495;-46
2021/10/02 10:12:07;;;;;;;3.30;2.03;;;27.60;62.30;;;;;;5123061;22;20570;-42
2021/10/02 10:14:36;;;;;;;2.07;1.87;;;27.80;61.00;;;;;;5120272;28;20429;-43
2021/10/02 10:17:08;;;;;;;2.77;2.13;;;27.60;61.30;;;;;;5105781;22;20481;-44
2021/10/02 10:19:35;;;;;;;2.50;1.77;;;27.90;61.40;;;;;;5089327;28;20425;-41
2021/10/02 10:22:10;;;;;;;2.90;1.50;;;28.40;59.60;;;;;;5078059;22;20588;-42
2021/10/02 10:24:39;;;;;;;1.90;1.60;;;28.70;59.10;;;;;;5059064;28;20508;-42
2021/10/02 10:27:07;;;;;;;4.83;1.67;;;28.80;59.30;;;;;;5083746;22;20489;-42
2021/10/02 10:29:43;;;;;;;4.60;1.97;;;29.20;57.80;;;;;;5090115;28;20882;-42
2021/10/02 10:32:12;;;;;;;2.63;2.17;;;28.90;57.90;;;;;;5113656;22;20592;-41
2021/10/02 10:34:40;;;;;;;1.63;1.50;;;28.80;57.50;;;;;;5118048;28;20520;-43
2021/10/02 10:37:09;;;;;;;2.23;1.27;;;28.70;57.40;;;;;;5121282;22;20559;-43
2021/10/02 10:39:36;;;;;;;2.43;1.90;;;28.50;57.10;;;;;;5087984;28;20500;-42
2021/10/02 10:42:04;;;;;;;2.90;2.23;;;28.20;57.90;;;;;;5096420;22;20489;-42
2021/10/02 10:44:35;;;;;;;2.30;1.80;;;27.90;58.40;;;;;;5082608;28;20459;-41
2021/10/02 10:47:04;;;;;;;2.27;2.03;;;27.70;58.80;;;;;;5086460;22;20963;-44
2021/10/02 10:49:30;;;;;;;2.20;1.80;;;27.20;60.10;;;;;;5120551;28;20526;-41
2021/10/02 10:52:01;;;;;;;5.43;1.80;;;26.70;62.10;;;;;;5151711;22;20477;-43
2021/10/02 10:54:32;;;;;;;2.23;2.03;;;26.30;63.70;;;;;;5080334;28;1017191;-44
2021/10/02 10:56:59;;;;;;;2.00;1.60;;;26.00;64.80;;;;;;5152869;22;20209;-39
2021/10/02 10:59:25;;;;;;;2.30;1.90;;;25.70;66.10;;;;;;5136494;28;20444;-45
2021/10/02 11:04:39;;;;;;;3.20;1.93;;;25.20;68.30;;;;;;5155832;22;20490;-40
2021/10/02 11:09:38;;;;;;;2.00;1.80;;;24.70;69.80;;;;;;5107834;22;20518;-39
2021/10/02 11:12:07;;;;;;;2.83;2.00;;;24.30;71.40;;;;;;5078557;28;20479;-43
2021/10/02 11:15:02;;;;;;;2.80;2.27;;;24.00;72.50;;;;;;5147816;22;20558;-44
2021/10/02 11:19:59;;;;;;;2.60;2.10;;;23.40;74.20;;;;;;5131255;22;20486;-39
2021/10/02 11:25:24;;;;;;;2.30;1.80;;;23.00;77.30;;;;;;5100588;22;20474;-43
2021/10/02 11:30:46;;;;;;;1.77;1.40;;;22.80;78.60;;;;;;5140690;22;20484;-45
2021/10/02 11:33:33;;;;;;;2.10;1.43;;;22.70;78.90;;;;;;5143541;22;20440;-40
2021/10/02 11:36:06;;;;;;;6.00;2.40;;;22.60;79.30;;;;;;5057182;28;20512;-46
2021/10/02 11:38:37;;;;;;;2.20;1.80;;;22.60;80.40;;;;;;5078736;22;20439;-43
2021/10/02 11:41:22;;;;;;;3.47;2.33;;;22.50;79.90;;;;;;5091689;28;20450;-43
2021/10/02 11:44:00;;;;;;;2.33;1.60;;;22.30;81.50;;;;;;5106150;22;20452;-44
2021/10/02 11:46:27;;;;;;;2.07;1.80;;;22.30;82.70;;;;;;5094362;28;20458;-43
2021/10/02 11:51:26;;;;;;;2.07;1.90;;;22.20;82.80;;;;;;5118693;22;20481;-48
2021/10/02 11:53:56;;;;;;;1.70;1.53;;;22.20;83.50;;;;;;5115769;28;20256;-40
2021/10/02 11:56:24;;;;;;;1.73;1.60;;;22.10;83.40;;;;;;5084194;22;20513;-51
2021/10/02 11:58:54;;;;;;;2.13;1.57;;;22.20;83.30;;;;;;5057162;28;20447;-43
2021/10/02 12:01:23;;;;;;;4.73;2.80;;;22.00;83.20;;;;;;5114725;22;20491;-50
2021/10/02 12:03:58;;;;;;;2.37;1.93;;;21.90;83.00;;;;;;5114972;28;20464;-45
2021/10/02 12:06:27;;;;;;;2.17;1.60;;;21.80;83.80;;;;;;5115290;28;20434;-49
2021/10/02 12:08:53;;;;;;;2.13;1.40;;;21.80;84.30;;;;;;5115342;28;20529;-43
2021/10/02 12:11:20;;;;;;;2.00;1.57;;;21.70;84.60;;;;;;5115346;28;20485;-43
2021/10/02 12:13:50;;;;;;;2.07;1.60;;;21.80;84.30;;;;;;5115511;28;20928;-46
2021/10/02 12:16:19;;;;;;;2.40;1.90;;;21.70;83.80;;;;;;5115668;28;20444;-45
2021/10/02 12:18:49;;;;;;;2.90;1.83;;;21.60;84.60;;;;;;5124439;22;20898;-41
2021/10/02 12:21:34;;;;;;;3.83;1.90;;;21.50;84.70;;;;;;5101933;22;20497;-41
2021/10/02 12:24:05;;;;;;;1.77;1.50;;;21.50;85.40;;;;;;5095959;28;20425;-44
2021/10/02 12:26:37;;;;;;;3.53;2.07;;;21.40;86.90;;;;;;5108011;22;20952;-44
2021/10/02 12:29:05;;;;;;;3.07;2.27;;;21.50;86.50;;;;;;5101141;28;20433;-43
2021/10/02 12:31:47;;;;;;;5.70;2.00;;;21.50;85.40;;;;;;5098672;28;20948;-46
2021/10/02 12:34:16;;;;;;;2.13;1.57;;;21.60;86.00;;;;;;5099588;28;20461;-44
2021/10/02 12:36:49;;;;;;;8.93;4.70;;;21.50;87.30;;;;;;5106688;22;20493;-47
2021/10/02 12:39:18;;;;;;;3.03;2.23;;;21.50;85.70;;;;;;5098724;28;20426;-44
2021/10/02 12:41:47;;;;;;;5.10;2.10;;;21.60;86.00;;;;;;5098814;28;20939;-48
2021/10/02 12:44:25;;;;;;;5.13;2.00;;;21.70;86.40;;;;;;5087359;28;20478;-44
2021/10/02 12:46:55;;;;;;;4.10;1.80;;;21.50;86.40;;;;;;5100377;22;20565;-47
2021/10/02 12:49:23;;;;;;;2.40;2.10;;;21.50;86.80;;;;;;5098523;28;20465;-44
2021/10/02 12:51:52;;;;;;;2.27;2.07;;;21.40;88.30;;;;;;5105780;22;20504;-45
2021/10/02 12:54:26;;;;;;;2.10;1.80;;;21.50;88.70;;;;;;5098029;28;20445;-46
2021/10/02 12:57:17;;;;;;;3.53;2.10;;;21.50;90.00;;;;;;5133776;22;21221;-42
2021/10/02 12:59:48;;;;;;;3.50;2.00;;;21.50;90.00;;;;;;5118618;28;20433;-47
2021/10/02 13:02:17;;;;;;;2.20;1.57;;;21.60;90.70;;;;;;5134201;22;20486;-44
2021/10/02 13:04:43;;;;;;;1.47;1.37;;;21.70;89.60;;;;;;5098568;28;20472;-42
2021/10/02 13:07:26;;;;;;;3.13;1.83;;;21.80;88.60;;;;;;5093647;22;20492;-49
2021/10/02 13:09:58;;;;;;;3.37;2.67;;;22.00;89.30;;;;;;5100787;28;20499;-48
2021/10/02 13:35:50;;;;;;;3.30;1.73;;;22.20;90.40;;;;;;5830744;22;20517;-44
2021/10/02 13:38:17;;;;;;;2.93;1.90;;;22.00;91.00;;;;;;5115404;28;20480;-37
2021/10/02 13:40:53;;;;;;;2.20;1.77;;;21.90;91.10;;;;;;5124083;22;20426;-45
2021/10/02 13:51:07;;;;;;;4.40;1.83;;;21.50;93.00;;;;;;5586418;22;20485;-43
2021/10/02 13:53:33;;;;;;;2.90;2.07;;;21.30;93.90;;;;;;5089870;28;20523;-43
2021/10/02 13:58:36;;;;;;;2.63;2.00;;;20.90;94.60;;;;;;5125051;22;20464;-43
2021/10/02 14:01:03;;;;;;;3.97;2.00;;;20.80;95.60;;;;;;5107792;28;20430;-43
2021/10/02 14:03:30;;;;;;;2.83;2.10;;;20.80;96.00;;;;;;5112827;22;20523;-45
2021/10/02 14:05:57;;;;;;;4.00;2.20;;;20.80;96.40;;;;;;5098832;28;20429;-44
2021/10/02 14:08:25;;;;;;;2.57;1.73;;;20.90;97.00;;;;;;5112893;22;20513;-46
2021/10/02 14:10:52;;;;;;;2.60;1.73;;;20.80;97.40;;;;;;5109455;28;20438;-45
2021/10/02 14:23:42;;;;;;;6.57;2.10;;;21.20;98.30;;;;;;5740781;22;20480;-42
2021/10/02 14:26:08;;;;;;;2.90;2.20;;;21.20;98.70;;;;;;5099822;28;20805;-44
2021/10/02 14:28:35;;;;;;;3.83;2.10;;;21.10;98.90;;;;;;5095451;28;20484;-44
2021/10/02 14:31:02;;;;;;;2.47;2.10;;;21.20;99.70;;;;;;5083716;28;20568;-43
2021/10/02 14:33:31;;;;;;;2.00;1.80;;;21.20;99.90;;;;;;5100789;22;20469;-42
2021/10/02 14:35:58;;;;;;;1.70;1.50;;;21.20;99.90;;;;;;5091181;28;20547;-43
2021/10/02 14:38:25;;;;;;;2.27;1.97;;;21.10;99.90;;;;;;5096553;22;20458;-42
2021/10/02 14:40:53;;;;;;;2.33;1.80;;;21.10;99.90;;;;;;5098557;28;20469;-45
2021/10/02 14:43:21;;;;;;;2.27;2.03;;;21.10;99.90;;;;;;5108347;28;20525;-43
2021/10/02 14:45:48;;;;;;;2.07;1.60;;;21.20;99.90;;;;;;5098101;28;21015;-44
2021/10/02 14:48:14;;;;;;;2.70;1.87;;;21.10;99.90;;;;;;5079454;28;20446;-43
2021/10/02 14:50:42;;;;;;;2.37;2.17;;;21.00;99.90;;;;;;5085680;28;20466;-41
2021/10/02 14:53:11;;;;;;;2.23;1.90;;;21.00;99.90;;;;;;5077847;28;20482;-43
2021/10/02 14:55:38;;;;;;;3.37;2.60;;;21.00;99.90;;;;;;5091221;28;20451;-43
2021/10/02 14:58:07;;;;;;;6.10;3.93;;;21.00;99.90;;;;;;5076638;28;20427;-50
2021/10/02 15:00:34;;;;;;;3.60;2.10;;;21.00;99.90;;;;;;5091958;22;21138;-50
2021/10/02 15:03:01;;;;;;;5.80;3.53;;;20.90;99.90;;;;;;5096467;28;20453;-47
2021/10/02 15:05:28;;;;;;;4.10;3.70;;;20.90;99.90;;;;;;5104123;22;20530;-45
2021/10/02 15:07:55;;;;;;;3.87;2.00;;;20.80;99.90;;;;;;5096608;28;20483;-49
2021/10/02 15:10:22;;;;;;;2.03;1.57;;;20.90;99.90;;;;;;5103985;22;20790;-44
2021/10/02 15:12:51;;;;;;;2.40;1.50;;;20.70;99.90;;;;;;5096208;28;20539;-42